createdAt,value
2022-10-01T00:00:26.510Z,80.70
2022-10-01T00:02:54.099Z,81.06
2022-10-01T00:05:21.664Z,80.55
2022-10-01T00:07:48.080Z,80.40
2022-10-01T00:10:15.746Z,80.54
2022-10-01T00:12:48.276Z,80.70
2022-10-01T00:15:16.733Z,80.81
2022-10-01T00:17:43.551Z,81.11
2022-10-01T00:20:14.495Z,80.68
2022-10-01T00:22:41.253Z,80.47
2022-10-01T00:25:08.011Z,78.95
2022-10-01T00:27:34.526Z,78.11
2022-10-01T00:30:00.834Z,77.64
2022-10-01T00:32:27.248Z,77.00
2022-10-01T00:34:53.806Z,76.00
2022-10-01T00:37:20.182Z,74.95
2022-10-01T00:39:46.508Z,74.42
2022-10-01T00:42:18.019Z,73.21
2022-10-01T00:44:45.322Z,71.88
2022-10-01T00:47:31.398Z,70.88
2022-10-01T00:50:19.433Z,70.29
2022-10-01T00:52:50.217Z,71.44
2022-10-01T00:55:20.717Z,72.33
2022-10-01T00:57:47.389Z,72.10
2022-10-01T01:00:15.081Z,71.66
2022-10-01T01:02:42.293Z,71.81
2022-10-01T01:05:10.515Z,69.91
2022-10-01T01:07:37.154Z,70.67
2022-10-01T01:10:05.259Z,70.95
2022-10-01T01:13:09.466Z,70.73
2022-10-01T01:15:44.415Z,68.80
2022-10-01T01:18:25.992Z,69.43
2022-10-01T01:21:01.870Z,68.93
2022-10-01T01:23:41.234Z,68.85
2022-10-01T01:26:32.207Z,69.54
2022-10-01T01:29:04.714Z,69.34
2022-10-01T01:31:38.485Z,68.79
2022-10-01T01:34:08.578Z,68.19
2022-10-01T01:36:37.051Z,68.41
2022-10-01T01:39:08.275Z,68.90
2022-10-01T01:41:39.847Z,69.37
2022-10-01T01:44:11.046Z,69.53
2022-10-01T01:46:41.749Z,69.05
2022-10-01T01:49:09.447Z,69.17
2022-10-01T01:51:40.513Z,69.13
2022-10-01T01:54:07.486Z,69.47
2022-10-01T01:56:34.121Z,68.68
2022-10-01T01:59:01.141Z,67.99
2022-10-01T02:01:39.493Z,68.71
2022-10-01T02:04:26.049Z,68.55
2022-10-01T02:07:07.798Z,68.03
2022-10-01T02:09:42.097Z,68.71
2022-10-01T02:12:34.953Z,69.21
2022-10-01T02:15:08.091Z,69.03
2022-10-01T02:17:51.272Z,68.43
2022-10-01T02:20:27.360Z,67.84
2022-10-01T02:23:05.488Z,68.54
2022-10-01T02:25:42.054Z,68.50
2022-10-01T02:28:14.157Z,68.39
2022-10-01T02:30:41.958Z,69.12
2022-10-01T02:33:13.056Z,69.67
2022-10-01T02:35:43.288Z,68.75
2022-10-01T02:38:11.387Z,68.92
2022-10-01T02:40:42.929Z,69.15
2022-10-01T02:43:18.733Z,69.55
2022-10-01T02:45:51.351Z,68.11
2022-10-01T02:48:18.204Z,68.39
2022-10-01T02:50:51.638Z,68.89
2022-10-01T02:53:28.935Z,69.34
2022-10-01T02:55:57.493Z,69.38
2022-10-01T02:58:24.047Z,69.05
2022-10-01T03:00:50.494Z,68.00
2022-10-01T03:03:17.052Z,68.04
2022-10-01T03:05:43.537Z,68.38
2022-10-01T03:08:10.043Z,68.11
2022-10-01T03:10:36.446Z,68.97
2022-10-01T03:13:02.903Z,69.38
2022-10-01T03:15:29.548Z,69.59
2022-10-01T03:17:56.191Z,70.17
2022-10-01T03:20:23.011Z,70.27
2022-10-01T03:22:49.552Z,69.95
2022-10-01T03:25:16.874Z,69.91
2022-10-01T03:27:43.769Z,70.47
2022-10-01T03:30:11.174Z,70.72
2022-10-01T03:32:37.493Z,71.05
2022-10-01T03:35:04.711Z,70.33
2022-10-01T03:37:31.108Z,69.79
2022-10-01T03:39:57.618Z,68.94
2022-10-01T03:42:24.176Z,69.20
2022-10-01T03:44:50.482Z,69.41
2022-10-01T03:47:16.900Z,69.89
2022-10-01T03:49:43.255Z,70.11
2022-10-01T03:52:10.110Z,69.70
2022-10-01T03:54:36.538Z,69.89
2022-10-01T03:57:02.895Z,69.28
2022-10-01T03:59:29.730Z,70.05
2022-10-01T04:01:56.185Z,70.71
2022-10-01T04:04:22.998Z,69.62
2022-10-01T04:06:49.706Z,68.25
2022-10-01T04:09:16.049Z,69.82
2022-10-01T04:11:42.710Z,69.60
2022-10-01T04:14:09.138Z,70.31
2022-10-01T04:16:35.615Z,69.70
2022-10-01T04:19:03.438Z,70.09
2022-10-01T04:21:30.429Z,68.76
2022-10-01T04:23:56.804Z,69.19
2022-10-01T04:26:23.337Z,69.10
2022-10-01T04:28:49.906Z,69.89
2022-10-01T04:31:16.320Z,68.40
2022-10-01T04:33:42.787Z,68.88
2022-10-01T04:36:09.137Z,68.24
2022-10-01T04:38:35.555Z,68.52
2022-10-01T04:41:01.970Z,68.18
2022-10-01T04:43:28.490Z,66.81
2022-10-01T04:45:55.170Z,67.02
2022-10-01T04:48:21.495Z,68.02
2022-10-01T04:50:47.840Z,67.03
2022-10-01T04:53:14.341Z,66.88
2022-10-01T04:55:41.252Z,66.58
2022-10-01T04:58:08.037Z,66.77
2022-10-01T05:00:34.378Z,67.96
2022-10-01T05:03:00.789Z,68.36
2022-10-01T05:05:27.514Z,68.60
2022-10-01T05:07:53.957Z,67.68
2022-10-01T05:10:22.199Z,68.69
2022-10-01T05:12:49.317Z,69.00
2022-10-01T05:15:16.819Z,69.41
2022-10-01T05:17:43.587Z,69.04
2022-10-01T05:20:22.241Z,68.12
2022-10-01T05:22:48.897Z,68.80
2022-10-01T05:25:16.259Z,69.07
2022-10-01T05:27:42.670Z,67.55
2022-10-01T05:30:11.151Z,68.46
2022-10-01T05:32:38.479Z,70.20
2022-10-01T05:35:06.483Z,71.21
2022-10-01T05:37:33.627Z,71.41
2022-10-01T05:40:00.169Z,69.63
2022-10-01T05:42:26.947Z,71.32
2022-10-01T05:44:53.293Z,72.56
2022-10-01T05:47:19.814Z,72.63
2022-10-01T05:49:46.253Z,71.87
2022-10-01T05:52:15.122Z,72.81
2022-10-01T05:54:41.568Z,71.62
2022-10-01T05:57:08.354Z,72.53
2022-10-01T05:59:35.240Z,72.33
2022-10-01T06:02:02.095Z,72.84
2022-10-01T06:04:28.879Z,73.32
2022-10-01T06:06:56.181Z,73.17
2022-10-01T06:09:22.649Z,74.18
2022-10-01T06:11:49.265Z,75.75
2022-10-01T06:14:16.461Z,74.83
2022-10-01T06:16:43.024Z,74.24
2022-10-01T06:19:09.478Z,75.56
2022-10-01T06:21:36.555Z,77.29
2022-10-01T06:24:03.319Z,76.26
2022-10-01T06:26:29.622Z,77.22
2022-10-01T06:28:56.039Z,78.01
2022-10-01T06:31:22.709Z,78.69
2022-10-01T06:33:49.086Z,79.26
2022-10-01T06:36:15.886Z,79.02
2022-10-01T06:38:42.279Z,79.79
2022-10-01T06:41:10.064Z,78.29
2022-10-01T06:43:36.734Z,78.41
2022-10-01T06:46:04.904Z,79.52
2022-10-01T06:48:32.145Z,79.51
2022-10-01T06:50:59.289Z,80.41
2022-10-01T06:53:28.157Z,80.07
2022-10-01T06:55:55.197Z,80.89
2022-10-01T06:58:23.660Z,79.36
2022-10-01T07:00:50.399Z,80.87
2022-10-01T07:03:19.946Z,79.95
2022-10-01T07:05:47.215Z,80.10
2022-10-01T07:08:14.101Z,81.22
2022-10-01T07:10:41.877Z,80.49
2022-10-01T07:13:13.762Z,79.82
2022-10-01T07:15:40.694Z,78.28
2022-10-01T07:18:07.968Z,80.14
2022-10-01T07:20:34.352Z,79.14
2022-10-01T07:23:02.127Z,78.36
2022-10-01T07:25:29.296Z,80.19
2022-10-01T07:28:04.641Z,81.05
2022-10-01T07:30:31.749Z,81.54
2022-10-01T07:32:58.571Z,82.38
2022-10-01T07:35:25.117Z,81.12
2022-10-01T07:37:51.845Z,82.10
2022-10-01T07:40:18.805Z,80.63
2022-10-01T07:42:55.708Z,82.11
2022-10-01T07:45:23.508Z,80.57
2022-10-01T07:47:54.437Z,80.52
2022-10-01T07:50:20.870Z,83.12
2022-10-01T07:52:51.149Z,82.96
2022-10-01T07:55:17.563Z,83.74
2022-10-01T07:57:44.106Z,82.39
2022-10-01T08:00:10.992Z,83.16
2022-10-01T08:02:37.331Z,82.59
2022-10-01T08:05:03.927Z,82.13
2022-10-01T08:07:31.498Z,82.12
2022-10-01T08:09:57.933Z,80.49
2022-10-01T08:12:24.373Z,80.60
2022-10-01T08:14:50.928Z,82.36
2022-10-01T08:17:17.587Z,81.88
2022-10-01T08:19:44.037Z,80.77
2022-10-01T08:22:10.465Z,80.47
2022-10-01T08:24:36.963Z,79.12
2022-10-01T08:27:03.345Z,78.69
2022-10-01T08:29:29.640Z,76.83
2022-10-01T08:31:56.241Z,76.73
2022-10-01T08:34:22.702Z,75.88
2022-10-01T08:36:52.258Z,78.16
2022-10-01T08:39:18.993Z,76.56
2022-10-01T08:41:59.287Z,78.09
2022-10-01T08:44:32.749Z,77.07
2022-10-01T08:47:06.893Z,77.62
2022-10-01T08:49:51.856Z,78.27
2022-10-01T08:52:25.633Z,76.84
2022-10-01T08:55:03.210Z,78.19
2022-10-01T08:57:39.612Z,78.50
2022-10-01T09:00:13.442Z,79.49
2022-10-01T09:02:42.262Z,79.06
2022-10-01T09:05:17.905Z,80.54
2022-10-01T09:08:02.254Z,82.30
2022-10-01T09:10:31.623Z,81.37
2022-10-01T09:13:21.412Z,82.77
2022-10-01T09:16:01.218Z,81.99
2022-10-01T09:18:46.717Z,84.16
2022-10-01T09:21:33.563Z,83.60
2022-10-01T09:24:13.331Z,84.32
2022-10-01T09:26:43.890Z,85.18
2022-10-01T09:29:17.446Z,85.24
2022-10-01T09:31:48.446Z,86.66
2022-10-01T09:34:18.840Z,86.72
2022-10-01T09:37:09.947Z,86.81
2022-10-01T09:39:46.847Z,88.19
2022-10-01T09:42:13.138Z,88.75
2022-10-01T09:44:39.539Z,88.27
2022-10-01T09:47:20.987Z,87.58
2022-10-01T09:49:49.129Z,87.33
2022-10-01T09:52:33.253Z,88.10
2022-10-01T09:55:05.574Z,87.69
2022-10-01T09:57:36.486Z,87.50
2022-10-01T10:00:10.600Z,84.21
2022-10-01T10:02:49.098Z,84.99
2022-10-01T10:05:19.039Z,85.64
2022-10-01T10:08:00.033Z,85.47
2022-10-01T10:10:30.713Z,84.18
2022-10-01T10:13:16.513Z,82.59
2022-10-01T10:16:16.318Z,83.30
2022-10-01T10:18:46.459Z,83.95
2022-10-01T10:21:16.553Z,82.38
2022-10-01T10:23:52.317Z,81.56
2022-10-01T10:26:34.011Z,81.56
2022-10-01T10:29:02.540Z,83.11
2022-10-01T10:31:42.393Z,81.53
2022-10-01T10:34:17.256Z,81.48
2022-10-01T10:36:45.810Z,82.79
2022-10-01T10:39:22.770Z,82.59
2022-10-01T10:41:52.227Z,84.05
2022-10-01T10:44:20.738Z,80.38
2022-10-01T10:46:49.297Z,81.56
2022-10-01T10:49:21.409Z,81.79
2022-10-01T10:51:53.413Z,80.21
2022-10-01T10:54:22.894Z,83.03
2022-10-01T10:56:53.995Z,81.00
2022-10-01T10:59:20.653Z,81.14
2022-10-01T11:01:48.470Z,80.64
2022-10-01T11:04:36.542Z,81.73
2022-10-01T11:07:03.332Z,82.33
2022-10-01T11:09:52.419Z,79.57
2022-10-01T11:12:30.420Z,80.64
2022-10-01T11:15:36.246Z,79.44
2022-10-01T11:18:27.236Z,81.30
2022-10-01T11:21:24.748Z,80.44
2022-10-01T11:24:00.117Z,78.48
2022-10-01T11:26:50.608Z,80.15
2022-10-01T11:29:31.787Z,77.76
2022-10-01T11:32:21.694Z,79.33
2022-10-01T11:35:11.002Z,78.68
2022-10-01T11:37:55.640Z,78.03
2022-10-01T11:40:28.621Z,77.92
2022-10-01T11:43:00.804Z,80.69
2022-10-01T11:45:35.337Z,78.38
2022-10-01T11:48:09.781Z,80.35
2022-10-01T11:50:42.546Z,78.54
2022-10-01T11:53:19.075Z,78.45
2022-10-01T11:55:53.381Z,78.00
2022-10-01T11:58:39.334Z,79.61
2022-10-01T12:01:09.838Z,77.67
2022-10-01T12:03:47.700Z,79.47
2022-10-01T12:06:15.622Z,78.98
2022-10-01T12:08:47.143Z,80.05
2022-10-01T12:11:22.624Z,78.11
2022-10-01T12:13:56.326Z,79.54
2022-10-01T12:16:32.073Z,79.96
2022-10-01T12:19:03.191Z,79.99
2022-10-01T12:21:37.128Z,79.90
2022-10-01T12:24:11.847Z,82.29
2022-10-01T12:27:00.186Z,80.79
2022-10-01T12:29:35.429Z,80.21
2022-10-01T12:32:10.869Z,81.18
2022-10-01T12:34:40.333Z,81.24
2022-10-01T12:37:06.893Z,80.25
2022-10-01T12:39:42.863Z,79.76
2022-10-01T12:42:34.500Z,81.84
2022-10-01T12:45:17.408Z,79.61
2022-10-01T12:47:58.121Z,80.42
2022-10-01T12:50:35.847Z,78.95
2022-10-01T12:53:11.149Z,78.53
2022-10-01T12:55:43.515Z,79.24
2022-10-01T12:58:38.855Z,78.46
2022-10-01T13:01:30.186Z,78.09
2022-10-01T13:04:23.402Z,78.65
2022-10-01T13:07:09.294Z,79.27
2022-10-01T13:09:48.753Z,80.67
2022-10-01T13:12:55.602Z,78.69
2022-10-01T13:15:40.772Z,80.01
2022-10-01T13:18:36.653Z,78.63
2022-10-01T13:21:32.946Z,77.57
2022-10-01T13:24:05.729Z,77.38
2022-10-01T13:26:43.305Z,79.22
2022-10-01T13:29:31.756Z,77.08
2022-10-01T13:32:04.066Z,78.47
2022-10-01T13:34:43.745Z,78.75
2022-10-01T13:37:19.252Z,76.80
2022-10-01T13:39:46.654Z,77.77
2022-10-01T13:42:38.317Z,78.86
2022-10-01T13:45:23.742Z,78.27
2022-10-01T13:47:50.574Z,77.45
2022-10-01T13:50:24.870Z,77.95
2022-10-01T13:52:53.109Z,79.90
2022-10-01T13:55:27.083Z,79.76
2022-10-01T13:58:05.488Z,80.82
2022-10-01T14:00:32.105Z,81.75
2022-10-01T14:03:03.670Z,78.83
2022-10-01T14:05:35.998Z,78.01
2022-10-01T14:08:24.663Z,77.95
2022-10-01T14:10:58.026Z,76.85
2022-10-01T14:13:26.605Z,76.75
2022-10-01T14:15:53.512Z,77.92
2022-10-01T14:18:23.428Z,78.39
2022-10-01T14:21:17.587Z,79.92
2022-10-01T14:24:02.297Z,78.05
2022-10-01T14:27:00.078Z,79.23
2022-10-01T14:29:43.710Z,77.29
2022-10-01T14:32:28.339Z,79.02
2022-10-01T14:35:00.699Z,78.64
2022-10-01T14:37:28.938Z,78.70
2022-10-01T14:40:17.412Z,80.11
2022-10-01T14:42:44.419Z,80.28
2022-10-01T14:45:18.400Z,79.46
2022-10-01T14:47:45.064Z,78.28
2022-10-01T14:50:18.110Z,79.35
2022-10-01T14:52:48.471Z,76.86
2022-10-01T14:55:18.190Z,78.11
2022-10-01T14:57:48.421Z,78.93
2022-10-01T15:00:19.587Z,77.35
2022-10-01T15:02:47.321Z,78.17
2022-10-01T15:05:27.545Z,75.94
2022-10-01T15:07:53.885Z,76.05
2022-10-01T15:10:22.122Z,75.54
2022-10-01T15:12:51.694Z,76.50
2022-10-01T15:15:24.549Z,75.74
2022-10-01T15:17:52.706Z,76.39
2022-10-01T15:20:19.500Z,76.02
2022-10-01T15:22:49.955Z,75.42
2022-10-01T15:25:23.575Z,75.68
2022-10-01T15:27:50.227Z,75.72
2022-10-01T15:30:17.862Z,76.51
2022-10-01T15:32:46.524Z,77.52
2022-10-01T15:35:17.971Z,75.62
2022-10-01T15:37:50.106Z,75.88
2022-10-01T15:40:29.853Z,76.53
2022-10-01T15:43:13.347Z,78.49
2022-10-01T15:45:40.414Z,80.88
2022-10-01T15:48:26.834Z,82.14
2022-10-01T15:51:00.048Z,82.19
2022-10-01T15:53:26.542Z,84.19
2022-10-01T15:55:54.949Z,83.49
2022-10-01T15:58:46.626Z,83.42
2022-10-01T16:01:22.068Z,82.10
2022-10-01T16:04:10.311Z,84.56
2022-10-01T16:06:42.130Z,86.90
2022-10-01T16:09:18.925Z,87.65
2022-10-01T16:11:53.013Z,88.59
2022-10-01T16:14:37.893Z,88.69
2022-10-01T16:17:19.349Z,87.90
2022-10-01T16:19:47.593Z,88.57
2022-10-01T16:22:29.006Z,89.08
2022-10-01T16:24:56.554Z,87.96
2022-10-01T16:27:33.951Z,88.53
2022-10-01T16:30:23.418Z,89.42
2022-10-01T16:32:50.632Z,89.70
2022-10-01T16:35:22.720Z,90.20
2022-10-01T16:37:51.479Z,90.12
2022-10-01T16:40:19.263Z,89.35
2022-10-01T16:42:46.754Z,89.83
2022-10-01T16:45:15.687Z,90.04
2022-10-01T16:47:42.589Z,89.69
2022-10-01T16:50:18.031Z,90.12
2022-10-01T16:52:44.396Z,90.35
2022-10-01T16:55:21.157Z,90.67
2022-10-01T16:57:47.627Z,89.75
2022-10-01T17:00:15.567Z,89.49
2022-10-01T17:02:42.658Z,89.24
2022-10-01T17:05:36.254Z,89.60
2022-10-01T17:08:03.402Z,89.65
2022-10-01T17:10:32.195Z,89.99
2022-10-01T17:12:58.959Z,89.41
2022-10-01T17:15:27.419Z,89.61
2022-10-01T17:17:55.007Z,90.29
2022-10-01T17:20:22.834Z,90.59
2022-10-01T17:22:50.221Z,90.07
2022-10-01T17:25:20.665Z,89.80
2022-10-01T17:27:47.928Z,89.72
2022-10-01T17:30:15.575Z,90.05
2022-10-01T17:32:42.606Z,89.81
2022-10-01T17:35:13.451Z,90.51
2022-10-01T17:37:41.389Z,90.79
2022-10-01T17:40:09.531Z,90.78
2022-10-01T17:42:36.241Z,90.55
2022-10-01T17:45:06.655Z,90.84
2022-10-01T17:47:33.605Z,89.61
2022-10-01T17:50:00.491Z,89.35
2022-10-01T17:52:26.918Z,89.38
2022-10-01T17:54:53.239Z,89.48
2022-10-01T17:57:19.583Z,89.99
2022-10-01T17:59:45.981Z,90.20
2022-10-01T18:02:36.462Z,90.36
2022-10-01T18:04:59.583Z,90.35
2022-10-01T18:07:25.898Z,90.73
2022-10-01T18:09:52.725Z,89.71
2022-10-01T18:12:19.806Z,89.87
2022-10-01T18:14:46.126Z,90.21
2022-10-01T18:17:12.861Z,90.50
2022-10-01T18:19:53.434Z,90.59
2022-10-01T18:22:20.999Z,90.84
2022-10-01T18:24:47.640Z,91.00
2022-10-01T18:27:14.056Z,90.87
2022-10-01T18:29:40.497Z,90.73
2022-10-01T18:32:23.579Z,91.05
2022-10-01T18:34:58.075Z,91.05
2022-10-01T18:37:46.296Z,90.92
2022-10-01T18:40:35.381Z,91.07
2022-10-01T18:43:20.390Z,90.95
2022-10-01T18:46:17.059Z,91.31
2022-10-01T18:49:01.586Z,91.27
2022-10-01T18:51:56.167Z,91.58
2022-10-01T18:55:11.046Z,91.29
2022-10-01T18:58:04.874Z,89.78
2022-10-01T19:00:45.054Z,90.29
2022-10-01T19:03:31.322Z,90.64
2022-10-01T19:06:01.983Z,90.94
2022-10-01T19:08:37.360Z,90.71
2022-10-01T19:11:18.263Z,90.07
2022-10-01T19:13:55.696Z,90.10
2022-10-01T19:16:43.761Z,89.79
2022-10-01T19:19:37.086Z,90.06
2022-10-01T19:22:25.061Z,89.98
2022-10-01T19:25:22.068Z,90.59
2022-10-01T19:28:09.878Z,90.59
2022-10-01T19:31:27.188Z,89.74
2022-10-01T19:34:04.887Z,88.92
2022-10-01T19:36:38.125Z,88.71
2022-10-01T19:39:12.241Z,89.04
2022-10-01T19:41:42.069Z,88.70
2022-10-01T19:44:20.547Z,89.30
2022-10-01T19:46:49.445Z,88.94
2022-10-01T19:49:36.969Z,87.75
2022-10-01T19:52:11.950Z,87.62
2022-10-01T19:54:43.768Z,88.00
2022-10-01T19:57:31.977Z,87.87
2022-10-01T20:00:00.913Z,87.63
2022-10-01T20:03:06.737Z,87.33
2022-10-01T20:05:54.704Z,86.44
2022-10-01T20:08:41.390Z,86.66
2022-10-01T20:11:29.266Z,87.12
2022-10-01T20:14:16.089Z,87.23
2022-10-01T20:16:47.218Z,87.84
2022-10-01T20:19:24.615Z,86.95
2022-10-01T20:22:04.689Z,86.79
2022-10-01T20:24:57.117Z,86.95
2022-10-01T20:27:42.263Z,87.78
2022-10-01T20:30:16.324Z,87.28
2022-10-01T20:33:31.549Z,86.50
2022-10-01T20:36:05.425Z,86.49
2022-10-01T20:39:06.450Z,85.92
2022-10-01T20:41:42.674Z,85.66
2022-10-01T20:44:14.859Z,84.80
2022-10-01T20:46:47.629Z,85.41
2022-10-01T20:49:36.401Z,86.51
2022-10-01T20:52:47.250Z,85.92
2022-10-01T20:55:18.446Z,85.73
2022-10-01T20:57:47.870Z,85.66
2022-10-01T21:00:21.834Z,85.79
2022-10-01T21:03:32.196Z,85.48
2022-10-01T21:06:07.358Z,85.14
2022-10-01T21:08:41.035Z,85.20
2022-10-01T21:11:29.222Z,84.63
2022-10-01T21:14:15.730Z,83.90
2022-10-01T21:16:55.294Z,83.96
2022-10-01T21:19:30.731Z,84.73
2022-10-01T21:22:03.509Z,85.12
2022-10-01T21:24:44.719Z,85.39
2022-10-01T21:27:30.936Z,84.10
2022-10-01T21:30:06.618Z,83.91
2022-10-01T21:33:02.110Z,84.08
2022-10-01T21:35:49.991Z,84.53
2022-10-01T21:38:51.895Z,84.71
2022-10-01T21:41:40.092Z,84.52
2022-10-01T21:44:24.685Z,84.77
2022-10-01T21:47:17.299Z,84.92
2022-10-01T21:49:55.532Z,84.47
2022-10-01T21:52:37.902Z,84.90
2022-10-01T21:55:22.949Z,84.86
2022-10-01T21:58:30.603Z,85.83
2022-10-01T22:01:13.494Z,85.67
2022-10-01T22:03:53.943Z,85.44
2022-10-01T22:06:46.511Z,85.97
2022-10-01T22:09:26.447Z,85.76
2022-10-01T22:11:56.691Z,85.36
2022-10-01T22:14:31.296Z,85.85
2022-10-01T22:17:12.380Z,86.19
2022-10-01T22:19:42.801Z,86.39
2022-10-01T22:22:14.615Z,86.65
2022-10-01T22:24:48.615Z,86.68
2022-10-01T22:27:27.893Z,86.47
2022-10-01T22:30:04.306Z,86.34
2022-10-01T22:32:52.944Z,86.72
2022-10-01T22:35:26.146Z,86.38
2022-10-01T22:38:00.158Z,86.64
2022-10-01T22:40:35.781Z,86.75
2022-10-01T22:43:10.278Z,87.24
2022-10-01T22:46:20.264Z,87.70
2022-10-01T22:49:15.022Z,87.45
2022-10-01T22:52:09.776Z,87.55
2022-10-01T22:54:59.246Z,87.94
2022-10-01T22:57:41.017Z,88.26
2022-10-01T23:00:10.987Z,88.02
2022-10-01T23:02:48.098Z,87.24
2022-10-01T23:05:32.736Z,86.72
2022-10-01T23:08:28.170Z,85.55
2022-10-01T23:11:04.106Z,85.02
2022-10-01T23:13:52.022Z,85.62
2022-10-01T23:16:59.020Z,85.71
2022-10-01T23:19:43.854Z,85.08
2022-10-01T23:22:39.711Z,84.82
2022-10-01T23:25:34.863Z,85.36
2022-10-01T23:28:45.290Z,85.09
2022-10-01T23:31:28.024Z,85.41
2022-10-01T23:34:09.897Z,85.80
2022-10-01T23:36:58.664Z,86.14
2022-10-01T23:39:48.832Z,86.52
2022-10-01T23:42:33.594Z,86.60
2022-10-01T23:45:09.404Z,86.77
2022-10-01T23:47:42.855Z,86.64
2022-10-01T23:50:21.026Z,86.72
2022-10-01T23:53:04.798Z,86.76
2022-10-01T23:55:57.022Z,86.83
2022-10-01T23:58:25.106Z,87.43
